createdAt,value
2023-02-15T00:01:10.081Z,31.23
2023-02-15T00:03:39.219Z,28.00
2023-02-15T00:06:07.662Z,37.15
2023-02-15T00:08:35.722Z,34.72
2023-02-15T00:11:12.710Z,33.08
2023-02-15T00:13:44.344Z,34.63
2023-02-15T00:16:14.283Z,34.70
2023-02-15T00:18:42.296Z,38.70
2023-02-15T00:21:11.511Z,42.78
2023-02-15T00:23:39.393Z,42.20
2023-02-15T00:26:11.627Z,39.70
2023-02-15T00:28:41.247Z,41.03
2023-02-15T00:31:13.270Z,42.90
2023-02-15T00:33:42.176Z,43.10
2023-02-15T00:36:11.439Z,44.15
2023-02-15T00:38:40.410Z,42.35
2023-02-15T00:41:09.514Z,35.85
2023-02-15T00:43:38.386Z,45.13
2023-02-15T00:46:07.243Z,49.35
2023-02-15T00:48:35.272Z,41.97
2023-02-15T00:51:03.462Z,34.38
2023-02-15T00:53:34.172Z,38.72
2023-02-15T00:56:02.414Z,37.83
2023-02-15T00:58:30.629Z,40.15
2023-02-15T01:01:08.584Z,38.58
2023-02-15T01:03:38.665Z,37.85
2023-02-15T01:06:06.725Z,39.85
2023-02-15T01:08:35.554Z,43.20
2023-02-15T01:11:07.945Z,43.20
2023-02-15T01:13:37.361Z,48.17
2023-02-15T01:16:06.325Z,44.08
2023-02-15T01:18:35.158Z,36.10
2023-02-15T01:21:11.815Z,35.65
2023-02-15T01:23:40.255Z,36.72
2023-02-15T01:26:09.165Z,33.60
2023-02-15T01:28:38.129Z,28.02
2023-02-15T01:31:08.772Z,24.58
2023-02-15T01:33:38.080Z,24.73
2023-02-15T01:36:07.046Z,28.27
2023-02-15T01:38:36.625Z,30.05
2023-02-15T01:41:28.209Z,26.48
2023-02-15T01:44:01.101Z,33.05
2023-02-15T01:46:36.388Z,36.45
2023-02-15T01:49:17.391Z,44.45
2023-02-15T01:51:48.680Z,36.17
2023-02-15T01:54:29.014Z,37.50
2023-02-15T01:57:04.052Z,35.60
2023-02-15T01:59:34.586Z,43.75
2023-02-15T02:02:04.895Z,40.15
2023-02-15T02:04:48.453Z,37.22
2023-02-15T02:07:20.559Z,24.48
2023-02-15T02:09:49.631Z,26.52
2023-02-15T02:12:19.568Z,29.88
2023-02-15T02:14:49.434Z,26.70
2023-02-15T02:17:34.221Z,28.00
2023-02-15T02:20:08.277Z,23.92
2023-02-15T02:22:57.911Z,27.55
2023-02-15T02:25:53.991Z,24.48
2023-02-15T02:28:39.339Z,24.25
2023-02-15T02:31:29.079Z,26.38
2023-02-15T02:34:12.371Z,26.65
2023-02-15T02:37:19.370Z,30.92
2023-02-15T02:39:53.084Z,27.33
2023-02-15T02:42:21.432Z,27.38
2023-02-15T02:44:54.813Z,26.80
2023-02-15T02:47:32.467Z,27.17
2023-02-15T02:50:06.768Z,24.52
2023-02-15T02:52:46.279Z,24.05
2023-02-15T02:55:21.094Z,21.52
2023-02-15T02:58:30.628Z,23.83
2023-02-15T03:01:14.671Z,23.77
2023-02-15T03:03:47.727Z,23.60
2023-02-15T03:06:25.219Z,24.27
2023-02-15T03:08:59.813Z,26.50
2023-02-15T03:11:28.012Z,28.10
2023-02-15T03:13:56.980Z,27.65
2023-02-15T03:16:27.216Z,29.45
2023-02-15T03:19:15.073Z,29.73
2023-02-15T03:22:04.704Z,25.70
2023-02-15T03:24:38.606Z,27.20
2023-02-15T03:27:19.967Z,26.83
2023-02-15T03:29:53.339Z,27.20
2023-02-15T03:32:23.492Z,27.35
2023-02-15T03:34:52.112Z,28.23
2023-02-15T03:37:23.399Z,27.75
2023-02-15T03:40:46.582Z,30.50
2023-02-15T03:43:23.389Z,31.80
2023-02-15T03:45:56.808Z,31.38
2023-02-15T03:51:20.502Z,29.48
2023-02-15T03:53:50.584Z,28.77
2023-02-15T03:56:19.070Z,27.73
2023-02-15T03:59:05.748Z,28.27
2023-02-15T04:01:45.368Z,28.10
2023-02-15T04:04:24.629Z,28.83
2023-02-15T04:06:53.482Z,22.92
2023-02-15T04:09:40.043Z,23.42
2023-02-15T04:12:08.564Z,22.13
2023-02-15T04:14:55.174Z,21.95
2023-02-15T04:17:24.146Z,20.70
2023-02-15T04:23:27.116Z,23.52
2023-02-15T04:25:55.008Z,21.52
2023-02-15T04:28:23.375Z,23.35
2023-02-15T04:30:51.692Z,23.77
2023-02-15T04:33:20.016Z,25.80
2023-02-15T04:35:48.262Z,26.13
2023-02-15T04:38:17.351Z,26.65
2023-02-15T04:40:46.073Z,25.08
2023-02-15T04:43:14.592Z,25.05
2023-02-15T04:45:42.790Z,25.52
2023-02-15T04:48:10.783Z,23.27
2023-02-15T04:50:39.267Z,24.15
2023-02-15T04:53:07.768Z,26.27
2023-02-15T04:55:35.707Z,26.42
2023-02-15T04:58:03.715Z,27.27
2023-02-15T05:00:32.840Z,29.63
2023-02-15T05:03:00.978Z,26.77
2023-02-15T05:05:29.091Z,26.17
2023-02-15T05:07:57.460Z,20.25
2023-02-15T05:10:26.320Z,23.35
2023-02-15T05:12:54.481Z,20.75
2023-02-15T05:15:23.375Z,22.92
2023-02-15T05:17:51.689Z,24.13
2023-02-15T05:20:20.131Z,21.23
2023-02-15T05:22:49.004Z,18.92
2023-02-15T05:25:36.060Z,19.98
2023-02-15T05:28:22.123Z,20.85
2023-02-15T05:30:54.299Z,24.77
2023-02-15T05:33:26.770Z,25.77
2023-02-15T05:35:58.044Z,27.42
2023-02-15T05:38:26.286Z,32.25
2023-02-15T05:40:54.540Z,46.00
2023-02-15T05:43:23.323Z,28.67
2023-02-15T05:45:53.573Z,45.90
2023-02-15T05:48:24.142Z,29.65
2023-02-15T05:51:14.453Z,26.15
2023-02-15T05:53:42.670Z,28.75
2023-02-15T05:56:35.831Z,29.40
2023-02-15T05:59:03.891Z,27.08
2023-02-15T06:01:32.332Z,27.77
2023-02-15T06:04:00.299Z,30.45
2023-02-15T06:06:28.438Z,28.80
2023-02-15T06:08:57.305Z,31.23
2023-02-15T06:11:25.487Z,28.83
2023-02-15T06:13:54.043Z,28.55
2023-02-15T06:16:23.050Z,30.40
2023-02-15T06:18:53.645Z,30.20
2023-02-15T06:21:21.879Z,25.90
2023-02-15T06:23:49.782Z,22.35
2023-02-15T06:26:17.878Z,21.42
2023-02-15T06:28:45.828Z,22.40
2023-02-15T06:31:14.039Z,22.98
2023-02-15T06:33:42.174Z,22.83
2023-02-15T06:36:10.245Z,20.40
2023-02-15T06:38:38.730Z,20.23
2023-02-15T06:41:07.508Z,24.75
2023-02-15T06:43:36.195Z,24.15
2023-02-15T06:46:04.529Z,22.98
2023-02-15T06:48:32.789Z,24.20
2023-02-15T06:51:01.382Z,25.73
2023-02-15T06:53:30.033Z,21.00
2023-02-15T06:56:10.231Z,19.20
2023-02-15T06:58:40.454Z,18.45
2023-02-15T07:01:10.247Z,19.70
2023-02-15T07:03:38.523Z,21.38
2023-02-15T07:06:09.458Z,26.98
2023-02-15T07:08:39.231Z,29.23
2023-02-15T07:11:26.742Z,26.60
2023-02-15T07:13:55.460Z,26.50
2023-02-15T07:16:23.647Z,27.63
2023-02-15T07:18:52.393Z,29.88
2023-02-15T07:21:20.421Z,26.10
2023-02-15T07:23:48.904Z,28.10
2023-02-15T07:26:17.336Z,28.17
2023-02-15T07:28:45.562Z,29.23
2023-02-15T07:31:13.530Z,28.15
2023-02-15T07:33:41.649Z,30.20
2023-02-15T07:36:13.303Z,31.13
2023-02-15T07:38:42.804Z,36.05
2023-02-15T07:41:13.627Z,53.60
2023-02-15T07:43:44.231Z,44.08
2023-02-15T07:46:16.308Z,39.35
2023-02-15T07:48:45.376Z,30.35
2023-02-15T07:51:14.094Z,35.50
2023-02-15T07:53:43.027Z,33.35
2023-02-15T07:56:13.386Z,31.83
2023-02-15T07:58:55.040Z,33.88
2023-02-15T08:01:32.378Z,33.28
2023-02-15T08:04:01.439Z,30.63
2023-02-15T08:06:33.265Z,30.95
2023-02-15T08:09:04.215Z,31.90
2023-02-15T08:11:34.515Z,30.88
2023-02-15T08:14:21.584Z,26.40
2023-02-15T08:16:52.137Z,25.63
2023-02-15T08:19:28.928Z,23.88
2023-02-15T08:21:59.344Z,22.38
2023-02-15T08:24:33.346Z,23.17
2023-02-15T08:27:06.006Z,27.17
2023-02-15T08:29:36.706Z,22.45
2023-02-15T08:32:08.255Z,21.13
2023-02-15T08:34:42.984Z,23.10
2023-02-15T08:37:11.033Z,21.38
2023-02-15T08:39:39.238Z,20.05
2023-02-15T08:42:07.743Z,20.00
2023-02-15T08:44:36.448Z,20.25
2023-02-15T08:47:05.194Z,21.23
2023-02-15T08:49:33.823Z,21.10
2023-02-15T08:52:01.892Z,21.00
2023-02-15T08:54:29.984Z,23.08
2023-02-15T08:56:58.338Z,24.42
2023-02-15T08:59:28.035Z,22.77
2023-02-15T09:01:56.567Z,22.95
2023-02-15T09:04:24.949Z,23.00
2023-02-15T09:06:53.348Z,22.50
2023-02-15T09:09:21.917Z,21.27
2023-02-15T09:11:57.873Z,23.58
2023-02-15T09:14:28.867Z,24.77
2023-02-15T09:16:56.951Z,22.75
2023-02-15T09:19:25.666Z,22.02
2023-02-15T09:21:54.417Z,19.77
2023-02-15T09:24:23.127Z,16.83
2023-02-15T09:26:51.037Z,17.75
2023-02-15T09:29:20.205Z,19.00
2023-02-15T09:31:51.959Z,17.25
2023-02-15T09:34:22.860Z,14.75
2023-02-15T09:36:52.150Z,15.00
2023-02-15T09:39:24.893Z,18.90
2023-02-15T09:41:55.940Z,22.48
2023-02-15T09:44:57.610Z,21.10
2023-02-15T09:47:29.180Z,19.70
2023-02-15T09:50:10.071Z,18.13
2023-02-15T09:52:51.132Z,17.63
2023-02-15T09:55:38.386Z,15.45
2023-02-15T09:58:31.918Z,15.02
2023-02-15T10:01:21.714Z,15.00
2023-02-15T10:04:13.006Z,19.45
2023-02-15T10:07:04.674Z,21.15
2023-02-15T10:09:58.758Z,28.17
2023-02-15T10:13:07.996Z,25.90
2023-02-15T10:15:46.401Z,27.80
2023-02-15T10:18:36.316Z,22.98
2023-02-15T10:21:45.657Z,18.33
2023-02-15T10:24:19.282Z,15.35
2023-02-15T10:26:49.363Z,14.50
2023-02-15T10:29:41.051Z,15.15
2023-02-15T10:32:24.533Z,15.45
2023-02-15T10:35:04.693Z,17.35
2023-02-15T10:37:50.549Z,18.48
2023-02-15T10:40:38.510Z,21.33
2023-02-15T10:43:28.488Z,20.05
2023-02-15T10:46:13.658Z,18.80
2023-02-15T10:48:54.090Z,19.58
2023-02-15T10:51:27.742Z,18.38
2023-02-15T10:54:09.898Z,20.75
2023-02-15T10:56:45.976Z,15.50
2023-02-15T10:59:26.180Z,27.92
2023-02-15T11:02:15.607Z,24.02
2023-02-15T11:04:50.474Z,19.73
2023-02-15T11:07:39.368Z,25.20
2023-02-15T11:10:38.900Z,23.00
2023-02-15T11:13:21.686Z,12.70
2023-02-15T11:16:14.908Z,10.68
2023-02-15T11:18:51.382Z,12.00
2023-02-15T11:21:28.889Z,12.23
2023-02-15T11:23:57.005Z,11.15
2023-02-15T11:26:35.164Z,9.00
2023-02-15T11:29:09.078Z,9.90
2023-02-15T11:31:52.542Z,12.18
2023-02-15T11:36:54.065Z,12.73
2023-02-15T11:39:23.310Z,13.45
2023-02-15T11:41:58.292Z,12.27
2023-02-15T11:44:37.003Z,14.55
2023-02-15T11:47:11.640Z,12.18
2023-02-15T11:49:40.648Z,13.45
2023-02-15T11:52:13.335Z,11.50
2023-02-15T11:54:51.167Z,11.52
2023-02-15T11:57:28.243Z,13.68
2023-02-15T12:00:05.340Z,12.93
2023-02-15T12:02:38.730Z,12.63
2023-02-15T12:05:14.098Z,12.70
2023-02-15T12:07:51.725Z,9.88
2023-02-15T12:10:23.675Z,9.63
2023-02-15T12:13:15.163Z,10.80
2023-02-15T12:15:47.670Z,11.25
2023-02-15T12:18:35.094Z,10.20
2023-02-15T12:21:27.517Z,9.77
2023-02-15T12:23:59.445Z,10.55
2023-02-15T12:26:31.503Z,11.15
2023-02-15T12:29:14.468Z,11.27
2023-02-15T12:31:46.064Z,11.85
2023-02-15T12:34:28.371Z,10.88
2023-02-15T12:36:59.228Z,11.65
2023-02-15T12:39:34.193Z,11.90
2023-02-15T12:42:20.490Z,11.07
2023-02-15T12:45:03.847Z,13.35
2023-02-15T12:47:33.519Z,11.73
2023-02-15T12:50:18.249Z,13.63
2023-02-15T12:52:49.398Z,14.00
2023-02-15T12:55:26.613Z,14.13
2023-02-15T12:58:19.424Z,13.98
2023-02-15T13:00:48.808Z,13.80
2023-02-15T13:03:25.101Z,14.00
2023-02-15T13:05:56.840Z,14.07
2023-02-15T13:08:47.709Z,15.15
2023-02-15T13:11:31.360Z,15.45
2023-02-15T13:16:38.011Z,14.63
2023-02-15T13:19:18.289Z,16.00
2023-02-15T13:21:49.143Z,19.27
2023-02-15T13:24:23.652Z,15.52
2023-02-15T13:27:01.061Z,15.15
2023-02-15T13:29:39.667Z,16.77
2023-02-15T13:32:30.723Z,17.10
2023-02-15T13:35:02.112Z,18.58
2023-02-15T13:37:52.875Z,16.88
2023-02-15T13:40:31.397Z,14.77
2023-02-15T13:43:24.151Z,13.73
2023-02-15T13:46:07.680Z,14.03
2023-02-15T13:51:21.825Z,13.55
2023-02-15T13:54:04.681Z,14.07
2023-02-15T13:56:32.688Z,13.63
2023-02-15T13:59:36.789Z,13.15
2023-02-15T14:02:47.339Z,14.32
2023-02-15T14:05:43.241Z,14.68
2023-02-15T14:08:36.382Z,15.07
2023-02-15T14:11:23.951Z,16.65
2023-02-15T14:13:54.875Z,15.13
2023-02-15T14:16:40.492Z,15.18
2023-02-15T14:19:43.252Z,15.40
2023-02-15T14:22:38.536Z,16.50
2023-02-15T14:25:45.050Z,15.95
2023-02-15T14:28:16.320Z,15.65
2023-02-15T14:30:49.826Z,17.48
2023-02-15T14:33:41.076Z,15.55
2023-02-15T14:36:15.166Z,16.13
2023-02-15T14:39:30.332Z,15.23
2023-02-15T14:42:06.746Z,15.65
2023-02-15T14:45:05.281Z,15.82
2023-02-15T14:47:42.371Z,14.73
2023-02-15T14:50:44.062Z,13.88
2023-02-15T14:53:28.653Z,16.38
2023-02-15T14:56:18.728Z,14.65
2023-02-15T14:58:54.910Z,15.80
2023-02-15T15:01:42.147Z,13.48
2023-02-15T15:04:25.047Z,14.15
2023-02-15T15:07:22.796Z,14.18
2023-02-15T15:10:21.238Z,13.20
2023-02-15T15:12:51.378Z,13.75
2023-02-15T15:15:27.868Z,13.50
2023-02-15T15:18:28.122Z,14.48
2023-02-15T15:20:56.929Z,14.00
2023-02-15T15:23:41.805Z,13.68
2023-02-15T15:26:23.740Z,12.82
2023-02-15T15:28:51.670Z,13.70
2023-02-15T15:31:38.731Z,15.88
2023-02-15T15:34:22.734Z,14.50
2023-02-15T15:37:34.445Z,12.63
2023-02-15T15:40:23.455Z,13.23
2023-02-15T15:43:09.568Z,14.30
2023-02-15T15:45:58.440Z,14.82
2023-02-15T15:48:30.692Z,13.88
2023-02-15T15:51:02.449Z,13.00
2023-02-15T15:53:35.498Z,11.93
2023-02-15T15:56:09.463Z,13.02
2023-02-15T15:58:43.608Z,13.70
2023-02-15T16:01:15.865Z,14.57
2023-02-15T16:03:52.436Z,13.70
2023-02-15T16:06:30.728Z,14.57
2023-02-15T16:08:59.435Z,14.65
2023-02-15T16:11:31.336Z,15.50
2023-02-15T16:13:59.781Z,15.25
2023-02-15T16:16:30.605Z,19.55
2023-02-15T16:19:00.770Z,15.82
2023-02-15T16:21:33.124Z,15.60
2023-02-15T16:24:21.332Z,16.33
2023-02-15T16:27:18.617Z,16.10
2023-02-15T16:29:47.256Z,17.13
2023-02-15T16:32:25.720Z,18.13
2023-02-15T16:35:03.325Z,17.85
2023-02-15T16:37:36.406Z,19.65
2023-02-15T16:40:07.080Z,20.38
2023-02-15T16:42:36.597Z,21.23
2023-02-15T16:45:17.598Z,22.85
2023-02-15T16:47:51.362Z,22.15
2023-02-15T16:50:24.475Z,24.92
2023-02-15T16:52:53.839Z,26.20
2023-02-15T16:55:33.298Z,26.92
2023-02-15T16:58:05.605Z,26.35
2023-02-15T17:00:38.339Z,31.42
2023-02-15T17:03:23.559Z,30.63
2023-02-15T17:05:55.456Z,38.28
2023-02-15T17:08:34.479Z,39.00
2023-02-15T17:11:16.563Z,37.38
2023-02-15T17:14:06.702Z,29.60
2023-02-15T17:16:37.175Z,31.30
2023-02-15T17:19:30.665Z,34.80
2023-02-15T17:22:01.817Z,38.60
2023-02-15T17:24:44.718Z,54.25
2023-02-15T17:27:18.474Z,39.47
2023-02-15T17:29:53.854Z,29.45
2023-02-15T17:32:25.742Z,33.35
2023-02-15T17:35:22.786Z,40.38
2023-02-15T17:37:51.952Z,32.05
2023-02-15T17:40:32.343Z,27.55
2023-02-15T17:43:00.569Z,29.77
2023-02-15T17:45:44.230Z,27.08
2023-02-15T17:50:45.526Z,31.13
2023-02-15T17:53:16.016Z,29.52
2023-02-15T17:55:44.378Z,28.67
2023-02-15T17:58:15.531Z,25.50
2023-02-15T18:01:05.517Z,30.17
2023-02-15T18:04:07.576Z,35.30
2023-02-15T18:06:56.444Z,38.38
2023-02-15T18:09:43.850Z,39.92
2023-02-15T18:12:23.221Z,44.17
2023-02-15T18:14:52.149Z,53.75
2023-02-15T18:17:22.759Z,54.67
2023-02-15T18:19:50.850Z,39.40
2023-02-15T18:22:20.426Z,42.92
2023-02-15T18:24:49.763Z,48.70
2023-02-15T18:27:18.102Z,43.72
2023-02-15T18:29:46.547Z,38.83
2023-02-15T18:32:36.490Z,35.85
2023-02-15T18:35:31.619Z,35.53
2023-02-15T18:38:01.561Z,35.80
2023-02-15T18:40:30.243Z,41.75
2023-02-15T18:42:58.200Z,39.92
2023-02-15T18:45:33.513Z,36.45
2023-02-15T18:48:01.909Z,40.72
2023-02-15T18:50:38.215Z,38.33
2023-02-15T18:53:11.747Z,35.50
2023-02-15T18:58:14.526Z,31.63
2023-02-15T19:00:43.976Z,33.03
2023-02-15T19:03:18.320Z,43.03
2023-02-15T19:05:47.700Z,44.55
2023-02-15T19:08:24.604Z,48.35
2023-02-15T19:10:53.306Z,53.85
2023-02-15T19:13:21.701Z,46.95
2023-02-15T19:15:49.726Z,46.28
2023-02-15T19:18:19.270Z,52.20
2023-02-15T19:20:48.624Z,49.38
2023-02-15T19:23:23.157Z,46.20
2023-02-15T19:25:54.191Z,45.70
2023-02-15T19:28:30.435Z,45.38
2023-02-15T19:30:59.137Z,46.42
2023-02-15T19:33:27.511Z,52.45
2023-02-15T19:35:57.804Z,44.08
2023-02-15T19:38:32.665Z,49.83
2023-02-15T19:41:08.006Z,49.13
2023-02-15T19:43:36.332Z,45.80
2023-02-15T19:46:05.214Z,32.65
2023-02-15T19:48:33.306Z,42.10
2023-02-15T19:51:01.251Z,32.67
2023-02-15T19:53:30.266Z,35.25
2023-02-15T19:55:58.513Z,32.47
2023-02-15T19:58:26.672Z,31.25
2023-02-15T20:00:54.888Z,33.08
2023-02-15T20:03:23.662Z,37.95
2023-02-15T20:05:52.529Z,34.10
2023-02-15T20:08:23.083Z,36.97
2023-02-15T20:10:52.581Z,40.90
2023-02-15T20:13:22.744Z,41.65
2023-02-15T20:15:52.144Z,38.97
2023-02-15T20:18:22.594Z,34.45
2023-02-15T20:20:53.482Z,30.58
2023-02-15T20:23:30.444Z,32.97
2023-02-15T20:26:01.710Z,29.27
2023-02-15T20:28:32.188Z,26.98
2023-02-15T20:31:00.717Z,29.20
2023-02-15T20:33:29.593Z,25.20
2023-02-15T20:35:59.696Z,29.88
2023-02-15T20:38:30.924Z,30.90
2023-02-15T20:41:18.924Z,30.98
2023-02-15T20:43:46.978Z,33.90
2023-02-15T20:46:15.187Z,31.92
2023-02-15T20:48:43.390Z,31.63
2023-02-15T20:51:18.088Z,33.17
2023-02-15T20:53:46.615Z,41.35
2023-02-15T20:56:23.137Z,28.83
2023-02-15T20:58:53.473Z,32.47
2023-02-15T21:01:21.622Z,29.25
2023-02-15T21:03:49.966Z,28.73
2023-02-15T21:06:18.613Z,28.98
2023-02-15T21:08:46.662Z,31.33
2023-02-15T21:11:21.256Z,36.67
2023-02-15T21:13:51.336Z,29.17
2023-02-15T21:16:20.154Z,30.80
2023-02-15T21:18:48.249Z,29.23
2023-02-15T21:21:23.892Z,38.10
2023-02-15T21:23:53.371Z,44.47
2023-02-15T21:26:22.882Z,43.92
2023-02-15T21:28:51.702Z,47.20
2023-02-15T21:31:25.410Z,38.28
2023-02-15T21:33:53.693Z,36.00
2023-02-15T21:36:25.452Z,33.47
2023-02-15T21:38:56.297Z,34.05
2023-02-15T21:41:56.911Z,31.55
2023-02-15T21:44:43.748Z,34.40
2023-02-15T21:47:37.996Z,47.53
2023-02-15T21:50:28.657Z,47.05
2023-02-15T21:52:57.640Z,48.55
2023-02-15T21:55:26.703Z,47.33
2023-02-15T21:57:56.087Z,42.35
2023-02-15T22:00:26.755Z,38.40
2023-02-15T22:02:58.300Z,38.90
2023-02-15T22:05:30.677Z,36.67
2023-02-15T22:07:58.845Z,34.45
2023-02-15T22:10:31.875Z,35.13
2023-02-15T22:13:03.830Z,32.28
2023-02-15T22:15:37.848Z,32.08
2023-02-15T22:18:07.196Z,27.67
2023-02-15T22:20:35.608Z,25.67
2023-02-15T22:23:03.653Z,23.75
2023-02-15T22:25:31.925Z,24.63
2023-02-15T22:27:59.851Z,30.70
2023-02-15T22:30:33.922Z,40.55
2023-02-15T22:33:01.995Z,33.60
2023-02-15T22:35:32.727Z,29.67
2023-02-15T22:38:01.404Z,28.65
2023-02-15T22:40:32.830Z,27.10
2023-02-15T22:43:03.689Z,23.55
2023-02-15T22:45:35.825Z,23.20
2023-02-15T22:48:04.883Z,22.48
2023-02-15T22:50:44.033Z,22.40
2023-02-15T22:53:15.464Z,19.40
2023-02-15T22:55:44.304Z,25.75
2023-02-15T22:58:23.785Z,24.60
2023-02-15T23:00:51.867Z,24.35
2023-02-15T23:03:26.440Z,26.10
2023-02-15T23:05:54.536Z,25.92
2023-02-15T23:08:22.471Z,26.80
2023-02-15T23:10:55.243Z,26.08
2023-02-15T23:13:27.685Z,28.48
2023-02-15T23:15:58.965Z,26.90
2023-02-15T23:18:32.406Z,29.05
2023-02-15T23:21:04.494Z,26.42
2023-02-15T23:23:34.766Z,29.10
2023-02-15T23:26:04.933Z,24.42
2023-02-15T23:28:38.778Z,20.08
2023-02-15T23:31:28.292Z,20.98
2023-02-15T23:33:57.660Z,20.92
2023-02-15T23:36:26.524Z,21.35
2023-02-15T23:38:57.112Z,25.30
2023-02-15T23:41:28.729Z,29.08
2023-02-15T23:43:57.735Z,29.80
2023-02-15T23:46:30.595Z,30.95
2023-02-15T23:48:59.409Z,28.00
2023-02-15T23:51:31.900Z,28.40
2023-02-15T23:54:00.315Z,27.85
2023-02-15T23:56:28.528Z,25.65
2023-02-15T23:58:56.856Z,28.80
